Time;durP1;ratioP1;P1;durP2;ratioP2;P2;SDS_P1;SDS_P2;PMS_P1;PMS_P2;Temp;Humidity;BMP_temperature;BMP_pressure;BME280_temperature;BME280_humidity;BME280_pressure;Samples;Min_cycle;Max_cycle;Signal;HPM_P1;HPM_P2
2023/10/12 00:02:22;;;;;;;2.03;1.57;;;16.00;99.90;;;;;;4998634;28;20972;-73
2023/10/12 00:04:59;;;;;;;2.97;1.47;;;16.00;99.90;;;;;;5016486;28;20903;-73
2023/10/12 00:07:34;;;;;;;3.07;1.93;;;16.00;99.90;;;;;;5016980;28;20420;-73
2023/10/12 00:10:19;;;;;;;2.60;1.60;;;15.90;99.90;;;;;;5016320;28;20497;-73
2023/10/12 00:12:53;;;;;;;2.57;1.50;;;15.90;99.90;;;;;;5016284;28;20457;-73
2023/10/12 00:15:28;;;;;;;2.40;1.60;;;15.90;99.90;;;;;;5016052;28;20463;-73
2023/10/12 00:17:58;;;;;;;3.80;1.83;;;15.90;99.90;;;;;;4998787;28;20812;-73
2023/10/12 00:20:35;;;;;;;3.20;1.93;;;15.90;99.90;;;;;;4998465;28;20448;-73
2023/10/12 00:23:10;;;;;;;2.80;1.30;;;15.80;99.90;;;;;;5015850;28;20456;-73
2023/10/12 00:25:46;;;;;;;4.27;2.00;;;15.70;99.90;;;;;;5015887;28;20555;-73
2023/10/12 00:28:18;;;;;;;4.47;1.90;;;15.70;99.90;;;;;;4998212;28;20455;-72
2023/10/12 00:30:47;;;;;;;4.80;2.47;;;15.60;99.90;;;;;;4998029;28;20423;-72
2023/10/12 00:33:17;;;;;;;7.00;2.57;;;15.60;99.90;;;;;;4998043;28;20868;-72
2023/10/12 00:35:50;;;;;;;5.27;2.13;;;15.50;99.90;;;;;;5015526;28;20463;-73
2023/10/12 00:38:18;;;;;;;7.80;2.17;;;15.40;99.90;;;;;;5015902;28;20386;-73
2023/10/12 00:40:55;;;;;;;3.83;1.93;;;15.30;99.90;;;;;;4998029;28;20422;-73
2023/10/12 00:43:28;;;;;;;7.07;2.43;;;15.30;99.90;;;;;;5016130;28;20532;-73
2023/10/12 00:45:56;;;;;;;5.80;2.20;;;15.20;99.90;;;;;;4997794;28;20482;-72
2023/10/12 00:48:30;;;;;;;6.27;2.17;;;15.20;99.90;;;;;;4997449;28;20455;-74
2023/10/12 00:50:59;;;;;;;7.30;2.80;;;15.10;99.90;;;;;;5015265;28;20429;-73
2023/10/12 00:53:32;;;;;;;8.80;4.40;;;15.10;99.90;;;;;;5015327;28;20444;-73
2023/10/12 00:56:02;;;;;;;6.63;2.53;;;15.10;99.90;;;;;;5015281;28;20510;-73
2023/10/12 00:58:31;;;;;;;6.43;2.27;;;15.00;99.90;;;;;;5015603;28;20487;-73
2023/10/12 01:01:08;;;;;;;5.30;2.23;;;15.00;99.90;;;;;;5015466;28;20424;-73
2023/10/12 01:03:36;;;;;;;4.80;2.20;;;15.00;99.90;;;;;;4997617;28;20953;-72
2023/10/12 01:06:20;;;;;;;8.50;2.90;;;14.90;99.90;;;;;;5015150;28;20452;-73
2023/10/12 01:08:50;;;;;;;6.80;2.30;;;14.90;99.90;;;;;;4997567;28;20444;-72
2023/10/12 01:11:21;;;;;;;6.00;2.33;;;14.80;99.90;;;;;;4997450;28;20510;-73
2023/10/12 01:14:03;;;;;;;8.70;2.93;;;14.80;99.90;;;;;;4997453;28;20440;-72
2023/10/12 01:16:44;;;;;;;5.83;2.40;;;14.70;99.90;;;;;;5015159;28;20526;-72
2023/10/12 01:19:20;;;;;;;6.43;1.83;;;14.70;99.90;;;;;;4997368;28;20432;-72
2023/10/12 01:21:51;;;;;;;9.37;3.30;;;14.60;99.90;;;;;;4997250;28;20443;-70
2023/10/12 01:24:29;;;;;;;9.30;3.00;;;14.60;99.90;;;;;;4997207;28;20806;-70
2023/10/12 01:26:59;;;;;;;7.93;2.93;;;14.60;99.90;;;;;;4997076;28;20486;-70
2023/10/12 01:29:31;;;;;;;7.93;2.57;;;14.60;99.90;;;;;;5015010;28;20424;-70
2023/10/12 01:34:51;;;;;;;9.67;2.40;;;14.60;99.90;;;;;;5014861;28;20452;-70
2023/10/12 01:37:25;;;;;;;8.80;2.87;;;14.60;99.90;;;;;;4996960;28;20439;-70
2023/10/12 01:40:10;;;;;;;9.13;2.87;;;14.50;99.90;;;;;;4996927;28;20436;-70
2023/10/12 01:42:49;;;;;;;4.77;2.83;;;14.50;99.90;;;;;;4996885;28;20534;-70
2023/10/12 01:45:31;;;;;;;9.23;2.30;;;14.50;99.90;;;;;;5014452;28;20467;-70
2023/10/12 01:48:07;;;;;;;6.13;2.60;;;14.50;99.90;;;;;;5014342;28;20459;-70
2023/10/12 01:50:37;;;;;;;8.77;3.37;;;14.40;99.90;;;;;;4996750;28;20921;-70
2023/10/12 01:53:22;;;;;;;5.30;2.80;;;14.40;99.90;;;;;;5014370;28;20460;-70
2023/10/12 01:55:51;;;;;;;6.37;2.53;;;14.40;99.90;;;;;;4996544;28;20468;-70
2023/10/12 01:58:20;;;;;;;5.77;2.23;;;14.40;99.90;;;;;;4996506;28;20484;-70
2023/10/12 02:00:52;;;;;;;5.40;2.40;;;14.40;99.90;;;;;;4995726;28;20495;-70
2023/10/12 02:03:31;;;;;;;4.30;2.27;;;14.30;99.90;;;;;;4996556;28;20941;-70
2023/10/12 02:06:04;;;;;;;4.50;2.20;;;14.30;99.90;;;;;;4996366;28;20471;-70
2023/10/12 02:08:39;;;;;;;7.07;2.10;;;14.30;99.90;;;;;;4996407;28;20471;-70
2023/10/12 02:11:11;;;;;;;6.80;2.30;;;14.30;99.90;;;;;;4996402;28;20435;-70
2023/10/12 02:13:41;;;;;;;6.20;2.50;;;14.30;99.90;;;;;;5013890;28;20460;-70
2023/10/12 02:16:12;;;;;;;7.47;2.60;;;14.30;99.90;;;;;;4996254;28;20467;-70
2023/10/12 02:18:43;;;;;;;8.43;3.00;;;14.30;99.90;;;;;;4996593;28;21045;-70
2023/10/12 02:21:11;;;;;;;7.83;2.23;;;14.30;99.90;;;;;;5013834;28;20774;-70
2023/10/12 02:23:55;;;;;;;8.90;3.50;;;14.30;99.90;;;;;;4996136;28;20475;-70
2023/10/12 02:26:31;;;;;;;9.23;2.70;;;14.30;99.90;;;;;;5014029;28;20459;-70
2023/10/12 02:29:11;;;;;;;7.70;2.53;;;14.30;99.90;;;;;;5014165;28;20431;-70
2023/10/12 02:31:46;;;;;;;8.37;3.40;;;14.30;99.90;;;;;;5013927;28;20449;-70
2023/10/12 02:34:16;;;;;;;6.77;2.67;;;14.20;99.90;;;;;;4996114;28;20494;-70
2023/10/12 02:37:00;;;;;;;6.17;2.50;;;14.20;99.90;;;;;;4995955;28;21059;-70
2023/10/12 02:39:30;;;;;;;7.03;2.90;;;14.20;99.90;;;;;;4997075;28;20821;-69
2023/10/12 02:42:16;;;;;;;6.90;3.10;;;14.20;99.90;;;;;;4995880;28;20456;-70
2023/10/12 02:44:57;;;;;;;5.20;2.87;;;14.20;99.90;;;;;;4995926;28;20440;-70
2023/10/12 02:47:30;;;;;;;7.93;2.70;;;14.10;99.90;;;;;;5013482;28;20455;-70
2023/10/12 02:50:14;;;;;;;7.07;3.03;;;14.10;99.90;;;;;;4995914;28;20462;-70
2023/10/12 02:52:44;;;;;;;8.93;3.13;;;14.10;99.90;;;;;;5013739;28;20471;-70
2023/10/12 02:55:26;;;;;;;7.70;2.80;;;14.10;99.90;;;;;;4995784;28;20450;-70
2023/10/12 02:57:59;;;;;;;7.80;2.77;;;14.10;99.90;;;;;;5014011;28;20428;-70
2023/10/12 03:00:37;;;;;;;6.17;2.93;;;14.10;99.90;;;;;;5013705;28;20425;-70
2023/10/12 03:03:19;;;;;;;10.60;2.80;;;14.10;99.90;;;;;;4995818;28;20439;-70
2023/10/12 03:05:48;;;;;;;7.30;2.50;;;14.10;99.90;;;;;;4995983;28;21011;-70
2023/10/12 03:08:17;;;;;;;6.73;2.37;;;14.10;99.90;;;;;;5013370;28;20917;-70
2023/10/12 03:11:09;;;;;;;7.70;2.83;;;14.00;99.90;;;;;;5013630;28;20447;-70
2023/10/12 03:13:40;;;;;;;6.87;2.67;;;14.00;99.90;;;;;;4998966;28;20467;-70
2023/10/12 03:16:13;;;;;;;6.87;2.77;;;14.00;99.90;;;;;;5017156;28;20456;-70
2023/10/12 03:18:43;;;;;;;9.13;3.30;;;14.00;99.90;;;;;;4999870;28;20847;-70
2023/10/12 03:21:14;;;;;;;7.37;3.00;;;13.90;99.90;;;;;;5017270;28;20431;-70
2023/10/12 03:23:46;;;;;;;8.93;3.03;;;13.90;99.90;;;;;;5017059;28;20420;-70
2023/10/12 03:26:24;;;;;;;11.10;3.17;;;13.90;99.90;;;;;;4999299;28;20521;-70
2023/10/12 03:28:53;;;;;;;8.97;3.30;;;13.90;99.90;;;;;;4999407;28;20461;-70
2023/10/12 03:31:23;;;;;;;9.03;3.23;;;13.90;99.90;;;;;;5016948;28;20517;-70
2023/10/12 03:33:55;;;;;;;9.60;4.10;;;13.90;99.90;;;;;;5017158;28;20470;-70
2023/10/12 03:36:25;;;;;;;8.47;3.50;;;13.90;99.90;;;;;;5017053;28;20491;-70
2023/10/12 03:39:12;;;;;;;11.80;5.30;;;13.80;99.90;;;;;;5016972;28;20434;-70
2023/10/12 03:44:36;;;;;;;8.63;3.57;;;13.80;99.90;;;;;;5008433;28;20539;-70
2023/10/12 03:47:14;;;;;;;7.30;2.80;;;13.90;99.90;;;;;;5016461;28;20478;-70
2023/10/12 03:49:57;;;;;;;14.20;3.80;;;13.80;99.90;;;;;;5016880;28;20432;-70
2023/10/12 03:52:30;;;;;;;5.83;3.00;;;13.80;99.90;;;;;;5017139;28;20442;-71
2023/10/12 03:55:16;;;;;;;9.30;3.27;;;13.80;99.90;;;;;;5016716;28;20432;-72
2023/10/12 03:57:51;;;;;;;16.53;4.03;;;13.80;99.90;;;;;;5016743;28;20784;-72
2023/10/12 04:00:32;;;;;;;6.50;3.10;;;13.80;99.90;;;;;;5016398;28;20482;-72
2023/10/12 04:03:05;;;;;;;6.40;2.80;;;13.70;99.90;;;;;;4998796;28;20436;-72
2023/10/12 04:05:45;;;;;;;6.17;3.37;;;13.70;99.90;;;;;;4999119;28;20833;-72
2023/10/12 04:08:39;;;;;;;6.77;2.97;;;13.70;99.90;;;;;;5017081;28;20451;-72
2023/10/12 04:16:56;;;;;;;8.40;3.07;;;13.70;99.90;;;;;;5005853;28;20571;-72
2023/10/12 04:19:31;;;;;;;10.43;3.10;;;13.60;99.90;;;;;;5016625;28;20755;-72
2023/10/12 04:22:16;;;;;;;10.80;3.63;;;13.60;99.90;;;;;;5015981;28;20466;-72
2023/10/12 04:24:45;;;;;;;6.67;3.23;;;13.60;99.90;;;;;;5015021;28;20416;-72
2023/10/12 04:30:00;;;;;;;4.10;2.53;;;13.60;99.90;;;;;;5007335;28;20897;-72
2023/10/12 04:32:51;;;;;;;7.00;2.60;;;13.60;99.90;;;;;;5016421;28;20420;-72
2023/10/12 04:35:27;;;;;;;8.97;3.47;;;13.60;99.90;;;;;;5015965;28;20452;-72
2023/10/12 04:37:55;;;;;;;9.33;3.13;;;13.60;99.90;;;;;;4998165;28;21016;-72
2023/10/12 04:40:37;;;;;;;8.70;3.30;;;13.60;99.90;;;;;;5015607;28;20455;-72
2023/10/12 04:43:06;;;;;;;10.17;3.33;;;13.60;99.90;;;;;;5016428;28;20878;-72
2023/10/12 04:46:26;;;;;;;8.83;3.00;;;13.50;99.90;;;;;;5015669;28;20456;-72
2023/10/12 04:49:29;;;;;;;6.73;3.53;;;13.50;99.90;;;;;;4997864;28;20452;-71
2023/10/12 04:51:51;;;;;;;8.80;3.23;;;13.50;99.90;;;;;;5015717;28;20932;-71
2023/10/12 04:54:24;;;;;;;6.57;3.13;;;13.50;99.90;;;;;;4997982;28;21004;-71
2023/10/12 04:57:11;;;;;;;8.70;3.23;;;13.40;99.90;;;;;;5015228;28;20466;-71
2023/10/12 04:59:50;;;;;;;13.00;3.90;;;13.40;99.90;;;;;;5015295;28;20507;-71
2023/10/12 05:02:28;;;;;;;10.20;4.17;;;13.40;99.90;;;;;;5015568;28;20947;-71
2023/10/12 05:05:37;;;;;;;8.57;4.40;;;13.40;99.90;;;;;;5015227;28;20424;-71
2023/10/12 05:08:05;;;;;;;6.70;3.90;;;13.40;99.90;;;;;;5015083;28;20447;-71
2023/10/12 05:10:46;;;;;;;9.87;3.97;;;13.40;99.90;;;;;;4997503;28;20479;-71
2023/10/12 05:13:23;;;;;;;8.93;4.77;;;13.40;99.90;;;;;;4997370;28;20467;-71
2023/10/12 05:18:37;;;;;;;11.20;4.80;;;13.40;99.90;;;;;;4996012;28;20444;-71
2023/10/12 05:21:08;;;;;;;7.83;4.80;;;13.40;99.90;;;;;;5014951;28;20420;-71
2023/10/12 05:23:38;;;;;;;11.80;5.43;;;13.30;99.90;;;;;;5014866;28;20907;-71
2023/10/12 05:26:09;;;;;;;7.70;4.60;;;13.30;99.90;;;;;;4997138;28;20989;-71
2023/10/12 05:28:47;;;;;;;10.80;5.17;;;13.30;99.90;;;;;;5014767;28;20428;-71
2023/10/12 05:31:20;;;;;;;10.60;5.50;;;13.30;99.90;;;;;;5015257;28;20416;-71
2023/10/12 05:34:25;;;;;;;12.13;5.17;;;13.30;99.90;;;;;;5014667;28;20460;-71
2023/10/12 05:36:52;;;;;;;14.40;5.80;;;13.30;99.90;;;;;;4996651;28;20474;-71
2023/10/12 05:39:22;;;;;;;8.90;5.10;;;13.30;99.90;;;;;;5014818;28;20444;-72
2023/10/12 05:41:53;;;;;;;10.40;5.90;;;13.30;99.90;;;;;;4996832;28;20964;-71
2023/10/12 05:44:26;;;;;;;10.30;5.80;;;13.30;99.90;;;;;;5014477;28;20451;-71
2023/10/12 05:46:59;;;;;;;10.20;6.60;;;13.30;99.90;;;;;;4996530;28;20567;-71
2023/10/12 05:49:33;;;;;;;9.10;5.37;;;13.30;99.90;;;;;;4997022;28;20863;-71
2023/10/12 05:52:04;;;;;;;11.80;6.03;;;13.30;99.90;;;;;;5014881;28;20516;-71
2023/10/12 05:54:33;;;;;;;14.13;6.03;;;13.30;99.90;;;;;;5014495;28;20492;-71
2023/10/12 05:57:07;;;;;;;14.63;7.10;;;13.30;99.90;;;;;;5014729;28;20464;-71
2023/10/12 05:59:38;;;;;;;10.90;6.50;;;13.30;99.90;;;;;;4996584;28;20448;-71
2023/10/12 06:02:09;;;;;;;11.70;6.90;;;13.30;99.90;;;;;;4996568;28;20452;-71
2023/10/12 06:04:39;;;;;;;14.10;7.37;;;13.30;99.90;;;;;;5014114;28;21005;-71
2023/10/12 06:07:08;;;;;;;12.57;7.70;;;13.20;99.90;;;;;;4996487;28;20471;-71
2023/10/12 06:09:37;;;;;;;11.10;7.40;;;13.20;99.90;;;;;;5014013;28;20436;-71
2023/10/12 06:12:07;;;;;;;13.57;8.20;;;13.20;99.90;;;;;;5013946;28;20432;-71
2023/10/12 06:14:35;;;;;;;13.20;7.40;;;13.30;99.90;;;;;;5014667;28;20893;-71
2023/10/12 06:17:05;;;;;;;14.20;8.20;;;13.20;99.90;;;;;;5013781;28;21039;-71
2023/10/12 06:19:36;;;;;;;13.87;8.13;;;13.20;99.90;;;;;;4996248;28;20444;-71
2023/10/12 06:22:19;;;;;;;12.07;7.27;;;13.30;99.90;;;;;;5014141;28;20428;-71
2023/10/12 06:24:49;;;;;;;14.10;7.27;;;13.20;99.90;;;;;;4996217;28;20441;-71
2023/10/12 06:27:23;;;;;;;12.13;8.10;;;13.20;99.90;;;;;;5013751;28;20475;-71
2023/10/12 06:29:53;;;;;;;12.80;8.00;;;13.20;99.90;;;;;;4996195;28;20449;-71
2023/10/12 06:32:31;;;;;;;16.30;8.90;;;13.20;99.90;;;;;;5013669;28;20432;-71
2023/10/12 06:35:12;;;;;;;11.67;7.53;;;13.20;99.90;;;;;;5013629;28;20518;-71
2023/10/12 06:38:15;;;;;;;13.60;7.40;;;13.20;99.90;;;;;;5013645;28;20412;-71
2023/10/12 06:40:38;;;;;;;13.10;8.13;;;13.20;99.90;;;;;;5013727;28;20450;-71
2023/10/12 06:46:03;;;;;;;13.30;8.03;;;13.20;99.90;;;;;;4990097;28;20471;-71
2023/10/12 06:48:47;;;;;;;15.33;8.70;;;13.30;99.90;;;;;;5013091;28;20941;-71
2023/10/12 06:51:15;;;;;;;11.43;7.47;;;13.30;99.90;;;;;;5013546;28;20789;-71
2023/10/12 06:54:05;;;;;;;17.10;8.17;;;13.30;99.90;;;;;;5013714;28;20933;-71
2023/10/12 06:56:38;;;;;;;12.77;7.80;;;13.30;99.90;;;;;;5013746;28;20956;-71
2023/10/12 06:59:14;;;;;;;17.63;7.43;;;13.30;99.90;;;;;;5013781;28;20474;-71
2023/10/12 07:01:53;;;;;;;8.67;7.17;;;13.30;99.90;;;;;;4996190;28;20530;-71
2023/10/12 07:04:27;;;;;;;14.53;7.53;;;13.30;99.90;;;;;;5014071;28;20507;-71
2023/10/12 07:06:59;;;;;;;10.73;7.20;;;13.30;99.90;;;;;;4995883;28;20495;-69
2023/10/12 07:09:39;;;;;;;9.50;6.77;;;13.30;99.90;;;;;;4995990;28;20444;-69
2023/10/12 07:12:10;;;;;;;11.53;6.40;;;13.30;99.90;;;;;;4996019;28;20527;-69
2023/10/12 07:14:43;;;;;;;13.50;7.03;;;13.30;99.90;;;;;;5014503;28;20464;-69
2023/10/12 07:17:11;;;;;;;17.37;7.17;;;13.30;99.90;;;;;;5013748;28;20452;-71
2023/10/12 07:19:40;;;;;;;10.53;6.23;;;13.30;99.90;;;;;;5013645;28;20472;-69
2023/10/12 07:22:15;;;;;;;16.80;6.87;;;13.30;99.90;;;;;;4996014;28;20448;-69
2023/10/12 07:24:45;;;;;;;11.67;6.50;;;13.30;99.90;;;;;;5013539;28;20419;-69
2023/10/12 07:27:18;;;;;;;12.23;6.20;;;13.30;99.90;;;;;;5013143;28;20491;-69
2023/10/12 07:29:48;;;;;;;8.57;5.47;;;13.30;99.90;;;;;;5013557;28;20931;-69
2023/10/12 07:32:30;;;;;;;11.33;7.20;;;13.30;99.90;;;;;;5013270;28;20439;-69
2023/10/12 07:35:07;;;;;;;10.17;5.97;;;13.30;99.90;;;;;;4995490;28;20506;-69
2023/10/12 07:37:41;;;;;;;14.40;6.60;;;13.30;99.90;;;;;;5013184;28;20852;-69
2023/10/12 07:40:17;;;;;;;9.27;6.20;;;13.30;99.90;;;;;;5013932;28;20762;-69
2023/10/12 07:42:47;;;;;;;9.90;6.13;;;13.30;99.90;;;;;;5013395;28;20419;-69
2023/10/12 07:45:15;;;;;;;10.70;6.47;;;13.30;99.90;;;;;;4995434;28;20977;-69
2023/10/12 07:47:46;;;;;;;11.90;7.10;;;13.30;99.90;;;;;;4995611;28;20855;-70
2023/10/12 07:50:25;;;;;;;10.50;6.27;;;13.30;99.90;;;;;;4995491;28;20440;-69
2023/10/12 07:53:21;;;;;;;9.20;6.17;;;13.30;99.90;;;;;;5013071;28;20424;-69
2023/10/12 07:55:43;;;;;;;10.97;6.30;;;13.30;99.90;;;;;;5012819;28;20583;-69
2023/10/12 07:58:12;;;;;;;11.60;6.50;;;13.40;99.90;;;;;;5013049;28;20820;-69
2023/10/12 08:00:51;;;;;;;13.07;6.20;;;13.40;99.90;;;;;;5016204;28;20450;-69
2023/10/12 08:03:19;;;;;;;13.23;6.40;;;13.40;99.90;;;;;;5016769;28;20420;-69
2023/10/12 08:06:06;;;;;;;10.67;6.77;;;13.40;99.90;;;;;;5016328;28;21034;-69
2023/10/12 08:08:37;;;;;;;13.13;6.87;;;13.40;99.90;;;;;;4998716;28;20455;-71
2023/10/12 08:11:10;;;;;;;10.80;6.00;;;13.50;99.90;;;;;;5016480;28;20447;-71
2023/10/12 08:13:48;;;;;;;11.57;6.80;;;13.50;99.90;;;;;;4998789;28;20452;-69
2023/10/12 08:16:26;;;;;;;10.90;5.90;;;13.60;99.90;;;;;;4998591;28;21051;-69
2023/10/12 08:21:59;;;;;;;9.90;6.07;;;13.60;99.90;;;;;;4958854;28;20464;-71
2023/10/12 08:24:35;;;;;;;12.10;6.03;;;13.70;99.90;;;;;;5009047;28;20546;-70
2023/10/12 08:27:07;;;;;;;11.20;5.90;;;13.80;99.90;;;;;;4998507;28;20472;-70
2023/10/12 08:32:32;;;;;;;12.13;5.60;;;13.80;99.90;;;;;;5016540;28;20467;-70
2023/10/12 08:38:11;;;;;;;10.20;5.90;;;13.90;99.90;;;;;;5015374;28;20537;-70
2023/10/12 08:40:54;;;;;;;8.50;4.83;;;14.00;99.90;;;;;;5016208;28;20456;-70
2023/10/12 08:43:42;;;;;;;10.67;4.97;;;14.00;99.90;;;;;;5016156;28;20479;-69
2023/10/12 08:46:19;;;;;;;7.10;5.07;;;14.10;99.90;;;;;;5015910;28;20475;-70
2023/10/12 08:48:53;;;;;;;7.90;3.90;;;14.20;99.90;;;;;;5015608;28;20447;-69
2023/10/12 08:51:30;;;;;;;10.00;4.73;;;14.20;99.90;;;;;;5016152;28;20440;-69
2023/10/12 08:54:02;;;;;;;10.07;4.07;;;14.20;99.90;;;;;;5016406;28;20818;-69
2023/10/12 08:56:36;;;;;;;10.63;3.37;;;14.30;99.90;;;;;;5015576;28;20515;-69
2023/10/12 08:59:08;;;;;;;11.00;3.60;;;14.30;99.90;;;;;;4997888;28;20472;-70
2023/10/12 09:01:42;;;;;;;10.87;3.70;;;14.30;99.90;;;;;;5015817;28;20460;-69
2023/10/12 09:04:13;;;;;;;5.43;3.40;;;14.40;99.90;;;;;;5015752;28;20424;-69
2023/10/12 09:06:55;;;;;;;6.20;2.93;;;14.40;99.90;;;;;;5015709;28;20530;-69
2023/10/12 09:12:24;;;;;;;7.90;2.60;;;14.50;99.90;;;;;;4974905;28;20426;-70
2023/10/12 09:14:55;;;;;;;8.60;2.87;;;14.50;99.90;;;;;;4958345;28;20442;-70
2023/10/12 09:17:30;;;;;;;6.27;2.87;;;14.50;99.90;;;;;;4994143;28;20470;-69
2023/10/12 09:22:45;;;;;;;7.00;2.60;;;14.50;99.90;;;;;;5013807;28;20892;-69
2023/10/12 09:26:14;;;;;;;4.60;2.20;;;14.50;99.90;;;;;;5015853;28;20455;-70
2023/10/12 09:28:05;;;;;;;9.53;3.67;;;14.50;99.90;;;;;;4997728;28;20953;-70
2023/10/12 09:30:36;;;;;;;6.87;2.30;;;14.50;99.90;;;;;;5015451;28;20440;-70
2023/10/12 09:33:10;;;;;;;9.13;2.50;;;14.50;99.90;;;;;;5015220;28;20428;-70
2023/10/12 09:35:41;;;;;;;9.07;2.50;;;14.50;99.90;;;;;;5015645;28;20467;-70
2023/10/12 09:38:12;;;;;;;9.53;2.77;;;14.50;99.90;;;;;;5015338;28;20774;-69
2023/10/12 09:40:43;;;;;;;6.40;2.33;;;14.50;99.90;;;;;;5015915;28;20428;-69
2023/10/12 09:43:16;;;;;;;9.53;2.70;;;14.60;99.90;;;;;;4997529;28;20440;-70
2023/10/12 09:45:47;;;;;;;7.43;2.70;;;14.70;99.90;;;;;;5015333;28;21034;-70
2023/10/12 09:48:24;;;;;;;10.30;2.67;;;14.80;99.90;;;;;;5014878;28;20439;-70
2023/10/12 09:50:55;;;;;;;4.63;2.17;;;14.80;99.90;;;;;;4997240;28;20440;-70
2023/10/12 09:53:36;;;;;;;7.73;2.80;;;14.90;99.90;;;;;;5015688;28;20515;-70
2023/10/12 09:56:16;;;;;;;7.67;2.87;;;15.00;99.90;;;;;;4997142;28;20921;-70
2023/10/12 09:58:51;;;;;;;13.37;3.40;;;15.00;99.90;;;;;;5015006;28;20894;-70
2023/10/12 10:01:45;;;;;;;5.80;2.20;;;15.00;99.90;;;;;;5015121;28;20419;-70
2023/10/12 10:04:28;;;;;;;6.00;3.10;;;15.10;99.90;;;;;;5015281;28;20451;-72
2023/10/12 10:07:17;;;;;;;8.03;2.50;;;15.10;99.90;;;;;;5014714;28;20517;-72
2023/10/12 10:09:47;;;;;;;9.93;2.43;;;15.20;99.90;;;;;;5015207;28;20448;-72
2023/10/12 10:12:17;;;;;;;10.27;3.00;;;15.20;99.90;;;;;;5015468;28;20420;-72
2023/10/12 10:14:52;;;;;;;7.03;2.63;;;15.20;99.90;;;;;;5014094;28;20455;-70
2023/10/12 10:17:25;;;;;;;6.00;1.90;;;15.20;99.90;;;;;;4996416;28;20881;-70
2023/10/12 10:20:45;;;;;;;8.57;2.13;;;15.30;99.90;;;;;;5014561;28;20474;-69
2023/10/12 10:23:14;;;;;;;7.73;2.53;;;15.30;99.90;;;;;;4995355;28;20538;-69
2023/10/12 10:25:56;;;;;;;7.03;2.53;;;15.20;99.90;;;;;;4996258;28;20554;-70
2023/10/12 10:28:28;;;;;;;9.90;2.90;;;15.30;99.90;;;;;;5013822;28;20425;-69
2023/10/12 10:31:00;;;;;;;5.07;2.10;;;15.30;99.90;;;;;;5013785;28;20996;-70
2023/10/12 10:33:30;;;;;;;10.90;2.50;;;15.30;99.90;;;;;;5014168;28;20932;-70
2023/10/12 10:36:01;;;;;;;5.87;1.70;;;15.30;99.90;;;;;;4995958;28;20511;-69
2023/10/12 10:38:33;;;;;;;8.33;1.90;;;15.30;99.90;;;;;;4996198;28;20450;-70
2023/10/12 10:41:08;;;;;;;8.00;2.10;;;15.40;99.90;;;;;;4996358;28;20455;-70
2023/10/12 10:43:38;;;;;;;8.20;2.77;;;15.30;99.90;;;;;;5013646;28;20478;-70
2023/10/12 10:46:09;;;;;;;6.73;2.13;;;15.30;99.90;;;;;;5013741;28;20491;-70
2023/10/12 10:48:41;;;;;;;8.20;2.00;;;15.30;99.90;;;;;;5013591;28;20454;-70
2023/10/12 10:51:18;;;;;;;6.53;1.87;;;15.30;99.90;;;;;;5013629;28;20931;-70
2023/10/12 10:53:52;;;;;;;4.30;1.70;;;15.30;99.90;;;;;;5013783;28;20425;-70
2023/10/12 10:56:35;;;;;;;6.50;2.00;;;15.30;99.90;;;;;;4995812;28;20854;-70
2023/10/12 10:59:05;;;;;;;9.97;2.00;;;15.30;99.90;;;;;;5013767;28;20432;-70
2023/10/12 11:01:33;;;;;;;9.33;2.30;;;15.30;99.90;;;;;;5013421;28;20443;-70
2023/10/12 11:04:08;;;;;;;8.17;2.63;;;15.30;99.90;;;;;;5013682;28;20444;-70
2023/10/12 11:06:37;;;;;;;6.23;1.90;;;15.40;99.90;;;;;;5013526;28;20966;-70
2023/10/12 11:09:06;;;;;;;5.70;2.27;;;15.40;99.90;;;;;;5013857;28;20837;-70
2023/10/12 11:11:37;;;;;;;6.93;2.30;;;15.40;99.90;;;;;;5013857;28;20425;-71
2023/10/12 11:14:08;;;;;;;5.93;2.27;;;15.50;99.90;;;;;;4995691;28;20813;-71
2023/10/12 11:16:37;;;;;;;10.77;2.70;;;15.50;99.90;;;;;;5013256;28;20973;-71
2023/10/12 11:19:08;;;;;;;9.73;2.97;;;15.60;99.90;;;;;;5013459;28;20439;-71
2023/10/12 11:21:37;;;;;;;11.50;3.10;;;15.60;99.90;;;;;;4995864;28;20841;-71
2023/10/12 11:24:09;;;;;;;7.33;2.60;;;15.70;99.90;;;;;;4995517;28;20519;-70
2023/10/12 11:26:51;;;;;;;7.10;2.40;;;15.70;99.90;;;;;;4995472;28;20953;-70
2023/10/12 11:29:20;;;;;;;11.73;2.33;;;15.70;99.90;;;;;;4995552;28;20925;-70
2023/10/12 11:32:08;;;;;;;8.27;2.07;;;15.70;99.90;;;;;;5013027;28;20422;-70
2023/10/12 11:34:44;;;;;;;8.37;2.30;;;15.80;99.90;;;;;;5018749;28;20432;-71
2023/10/12 11:37:14;;;;;;;8.20;2.70;;;15.80;99.90;;;;;;5020028;28;20451;-70
2023/10/12 11:39:43;;;;;;;7.30;2.20;;;15.80;99.90;;;;;;5019705;28;20436;-70
2023/10/12 11:42:13;;;;;;;6.13;1.90;;;15.80;99.90;;;;;;5016942;28;20443;-71
2023/10/12 11:44:45;;;;;;;5.30;1.77;;;15.80;99.90;;;;;;5016805;28;20432;-71
2023/10/12 11:47:37;;;;;;;8.80;2.43;;;15.90;99.90;;;;;;4999210;28;20480;-71
2023/10/12 11:50:13;;;;;;;4.40;1.60;;;15.90;99.90;;;;;;5021374;28;20440;-71
2023/10/12 11:52:49;;;;;;;4.67;1.80;;;15.90;99.90;;;;;;5022276;28;20502;-71
2023/10/12 11:55:19;;;;;;;4.87;1.90;;;15.90;99.90;;;;;;5022051;28;20538;-71
2023/10/12 11:57:54;;;;;;;8.57;2.73;;;15.90;99.90;;;;;;5022190;28;20463;-71
2023/10/12 12:00:26;;;;;;;7.27;2.17;;;15.90;99.90;;;;;;5021068;28;20431;-71
2023/10/12 12:02:59;;;;;;;8.03;2.33;;;15.90;99.90;;;;;;5021455;28;20433;-71
2023/10/12 12:05:30;;;;;;;23.10;3.40;;;15.90;99.90;;;;;;5018983;28;20464;-71
2023/10/12 12:08:05;;;;;;;5.60;2.00;;;15.90;99.90;;;;;;5017562;28;20424;-71
2023/10/12 12:10:44;;;;;;;4.97;2.20;;;16.00;99.90;;;;;;5019955;28;20419;-71
2023/10/12 12:13:15;;;;;;;5.93;1.83;;;16.00;99.90;;;;;;5002468;28;20949;-71
2023/10/12 12:15:44;;;;;;;7.00;2.50;;;16.00;99.90;;;;;;5019525;28;20470;-71
2023/10/12 12:18:18;;;;;;;6.20;1.93;;;16.00;99.90;;;;;;5018946;28;20827;-71
2023/10/12 12:20:49;;;;;;;5.63;2.00;;;16.00;99.90;;;;;;5019576;28;20465;-71
2023/10/12 12:23:17;;;;;;;6.57;2.03;;;16.00;99.90;;;;;;5020439;28;20857;-71
2023/10/12 12:25:46;;;;;;;6.07;2.10;;;16.00;99.90;;;;;;5019042;28;20546;-71
2023/10/12 12:28:15;;;;;;;5.83;2.10;;;16.00;99.90;;;;;;5001576;28;20583;-71
2023/10/12 12:30:51;;;;;;;7.10;2.67;;;16.00;99.90;;;;;;5018917;28;20442;-71
2023/10/12 12:33:27;;;;;;;8.87;2.43;;;16.00;99.90;;;;;;5001362;28;20509;-71
2023/10/12 12:36:00;;;;;;;7.87;2.27;;;16.00;99.90;;;;;;5016820;28;20554;-71
2023/10/12 12:38:43;;;;;;;5.17;2.33;;;16.00;99.90;;;;;;5015965;28;20456;-71
2023/10/12 12:41:19;;;;;;;7.63;1.73;;;16.00;99.90;;;;;;4998465;28;20547;-71
2023/10/12 12:43:48;;;;;;;11.00;2.30;;;16.00;99.90;;;;;;5015637;28;20424;-71
2023/10/12 12:46:17;;;;;;;7.07;2.10;;;16.00;99.90;;;;;;5014752;28;20977;-71
2023/10/12 12:48:46;;;;;;;5.80;1.73;;;16.10;99.90;;;;;;5015396;28;20466;-71
2023/10/12 12:51:16;;;;;;;7.33;2.20;;;16.10;99.90;;;;;;5015487;28;20417;-71
2023/10/12 12:53:46;;;;;;;11.07;2.97;;;16.10;99.90;;;;;;5016002;28;20975;-71
2023/10/12 12:56:15;;;;;;;6.60;2.07;;;16.10;99.90;;;;;;5015547;28;20427;-71
2023/10/12 12:58:46;;;;;;;5.03;1.90;;;16.10;99.90;;;;;;5015271;28;20509;-71
2023/10/12 13:01:16;;;;;;;6.80;1.93;;;16.10;99.90;;;;;;5015346;28;20507;-71
2023/10/12 13:03:44;;;;;;;8.60;2.20;;;16.20;99.90;;;;;;5015365;28;20418;-71
2023/10/12 13:06:15;;;;;;;7.50;2.10;;;16.20;99.90;;;;;;4997536;28;20467;-71
2023/10/12 13:08:44;;;;;;;8.27;2.17;;;16.20;99.90;;;;;;4997612;28;20493;-71
2023/10/12 13:11:17;;;;;;;6.60;2.20;;;16.20;99.90;;;;;;5015092;28;21012;-71
2023/10/12 13:13:47;;;;;;;5.90;1.97;;;16.20;99.90;;;;;;5015338;28;20922;-71
2023/10/12 13:16:16;;;;;;;6.03;2.00;;;16.20;99.90;;;;;;5015272;28;20448;-71
2023/10/12 13:18:46;;;;;;;8.67;2.40;;;16.20;99.90;;;;;;4997279;28;20518;-71
2023/10/12 13:21:16;;;;;;;7.87;2.40;;;16.20;99.90;;;;;;5015239;28;20430;-71
2023/10/12 13:23:46;;;;;;;4.67;1.67;;;16.20;99.90;;;;;;5015108;28;20543;-71
2023/10/12 13:26:17;;;;;;;5.57;2.40;;;16.20;99.90;;;;;;5014891;28;20550;-71
2023/10/12 13:28:45;;;;;;;4.07;1.80;;;16.10;99.90;;;;;;5015351;28;20402;-71
2023/10/12 13:31:14;;;;;;;6.50;3.03;;;16.10;99.90;;;;;;5015088;28;20436;-71
2023/10/12 13:33:42;;;;;;;6.20;1.90;;;16.20;99.90;;;;;;5014947;28;20415;-71
2023/10/12 13:36:11;;;;;;;8.60;2.70;;;16.10;99.90;;;;;;5014659;28;21019;-71
2023/10/12 13:38:39;;;;;;;8.63;2.50;;;16.10;99.90;;;;;;4997891;28;20912;-71
2023/10/12 13:41:10;;;;;;;6.50;1.77;;;16.10;99.90;;;;;;5014541;28;20436;-71
2023/10/12 13:43:40;;;;;;;8.60;2.20;;;16.20;99.90;;;;;;5014590;28;20468;-71
2023/10/12 13:46:08;;;;;;;5.13;1.97;;;16.10;99.90;;;;;;5014265;28;20777;-71
2023/10/12 13:48:40;;;;;;;6.33;2.60;;;16.10;99.90;;;;;;5014431;28;20882;-71
2023/10/12 13:51:12;;;;;;;8.33;2.07;;;16.10;99.90;;;;;;4996755;28;20945;-71
2023/10/12 13:53:41;;;;;;;9.90;2.43;;;16.10;99.90;;;;;;5014401;28;20797;-71
2023/10/12 13:56:11;;;;;;;6.53;1.87;;;16.10;99.90;;;;;;4996650;28;20558;-71